Terminal Aerodrome Forecast
Issued by NWS

Home | Current Version | Previous Version | Text Only | Print | Product List | Glossary On
Versions: 1 2 3 4 5 6 7 8 9 10 11 12 13 14 15 16 17
000
FTUS42 KMLB 231100 RRA
TAFLEE
TAF
KLEE 231145Z 2312/2412 16006KT P6SM OVC008 WS010/16037KT
     FM231500 16012G20KT P6SM BKN025
     FM231900 18015G25KT P6SM VCSH BKN035 BKN060
     FM240200 19007KT P6SM SCT035 BKN200
     FM240600 19006KT 3SM BR OVC003=

USA.gov is the U.S. government's official web portal to all federal, state and local government web resources and services.